Latest Weather Observations for Scone Airport

IDN60801

Issued at 11:33 am EST Wednesday 29 June 2016 (issued every 30 minutes, with the page automatically refreshed every 10 minutes)

About weather observations | Map of weather stations | Latest weather observations for NSW | Other Formats
Station Details ID: 061363 Name: SCONE AIRPORT AWS Lat: -32.03 Lon: 150.83 Height: 221.4 m
Data from the previous 72 hours. | See also: Recent months at Scone Airport
Date/Time
EST
Temp
°C
App
Temp
°C
Dew
Point
°C
Rel
Hum
%
Delta-T
°C
Wind Press
QNH
hPa
Press
MSL
hPa
Rain since
9am
mm
Dir  Spd
km/h
Gust
km/h
Spd
kts
Gust
kts
29/11:30am 11.5 9.0 4.0 60 3.4 SE 6 9 3 5 1027.3 1027.5 0.0
29/11:00am 10.4 8.2 3.4 62 3.1 SE 4 7 2 4 1028.2 1028.4 0.0
29/10:30am 9.5 7.8 3.9 68 2.5 S 2 6 1 3 1028.5 1028.7 0.0
29/10:00am 8.3 6.1 3.6 72 2.0 SE 4 7 2 4 1028.8 1029.0 0.0
29/09:30am 6.3 4.8 3.1 80 1.4 CALM 0 6 0 3 1028.8 1029.0 0.0
29/09:00am 4.7 2.8 2.7 87 0.8 ENE 2 7 1 4 1028.8 1029.0 0.0
29/08:30am 3.9 2.5 3.8 99 0.0 CALM 0 0 0 0 1028.9 1029.1 0.0
29/08:00am 1.2 -1.0 1.1 99 0.0 N 2 7 1 4 1029.0 1029.2 0.0
29/07:30am -1.2 -3.4 -1.6 97 0.1 CALM 0 0 0 0 1028.7 1028.9 0.0
29/07:00am -1.6 -3.9 -2.2 96 0.1 CALM 0 0 0 0 1028.4 1028.6 0.0
29/06:30am -1.3 -3.5 -1.7 97 0.1 CALM 0 0 0 0 1028.2 1028.4 0.0
29/06:00am -1.3 -3.5 -1.9 96 0.1 CALM 0 0 0 0 1027.9 1028.1 0.0
29/05:30am -1.2 -3.4 -1.6 97 0.1 CALM 0 0 0 0 1027.6 1027.8 0.0
29/05:00am -0.9 -3.1 -1.3 97 0.1 CALM 0 6 0 3 1027.5 1027.7 0.0
29/04:30am -1.4 -4.8 -2.0 96 0.1 N 6 9 3 5 1027.3 1027.5 0.0
29/04:00am -0.2 -4.0 -0.6 97 0.1 WNW 9 11 5 6 1027.1 1027.3 0.0
29/03:30am -0.5 -3.4 -1.1 96 0.2 NE 4 7 2 4 1027.0 1027.2 0.0
29/03:00am -0.3 -3.6 -0.9 96 0.2 NE 6 7 3 4 1027.3 1027.5 0.0
29/02:30am 0.2 -1.9 -0.5 95 0.3 CALM 0 0 0 0 1027.4 1027.6 0.0
29/02:00am 0.9 -2.2 0.2 95 0.3 NE 6 7 3 4 1027.2 1027.4 0.0
29/01:30am 1.2 -0.7 0.3 94 0.3 CALM 0 6 0 3 1027.4 1027.6 0.0
29/01:00am 1.1 -1.6 0.1 93 0.4 NW 4 11 2 6 1027.4 1027.6 0.0
29/12:30am 1.7 -1.3 0.7 93 0.4 NW 6 7 3 4 1027.3 1027.5 0.0
29/12:00am 1.6 -0.3 0.3 91 0.5 CALM 0 6 0 3 1027.5 1027.7 0.0
 
Date/Time
EST
Temp
°C
App
Temp
°C
Dew
Point
°C
Rel
Hum
%
Delta-T
°C
Wind Press
QNH
hPa
Press
MSL
hPa
Rain since
9am
mm
Dir  Spd
km/h
Gust
km/h
Spd
kts
Gust
kts
28/11:30pm 2.0 -0.7 0.2 88 0.7 N 4 7 2 4 1027.7 1027.9 0.0
28/11:00pm 2.5 0.2 0.6 87 0.7 NW 2 7 1 4 1027.8 1028.0 0.0
28/10:30pm 3.1 1.2 0.7 84 0.9 CALM 0 0 0 0 1027.8 1028.0 0.0
28/10:00pm 3.9 0.9 0.9 81 1.2 NNE 6 9 3 5 1027.7 1027.9 0.0
28/09:30pm 4.4 1.4 1.1 79 1.3 ENE 6 7 3 4 1027.5 1027.7 0.0
28/09:00pm 8.8 5.1 2.2 63 2.8 NW 11 17 6 9 1027.4 1027.6 0.0
28/08:30pm 8.3 4.5 1.9 64 2.7 NW 11 17 6 9 1027.2 1027.4 0.0
28/08:00pm 8.9 5.1 2.0 62 2.9 NW 11 20 6 11 1026.9 1027.1 0.0
28/07:30pm 9.9 5.9 2.7 61 3.1 NW 13 20 7 11 1026.7 1026.9 0.0
28/07:00pm 9.9 6.3 2.7 61 3.1 NNW 11 17 6 9 1026.4 1026.5 0.0
28/06:30pm 9.5 5.9 2.8 63 2.9 NW 11 17 6 9 1025.8 1026.0 0.0
28/06:00pm 10.2 6.3 3.3 62 3.0 NW 13 19 7 10 1025.4 1025.6 0.0
28/05:30pm 10.4 5.7 3.4 62 3.1 WNW 17 24 9 13 1025.0 1025.2 0.0
28/05:00pm 10.8 7.5 2.6 57 3.6 WNW 9 11 5 6 1024.5 1024.7 0.0
28/04:30pm 13.0 9.2 3.7 53 4.2 W 13 17 7 9 1024.3 1024.5 0.0
28/04:00pm 14.0 9.6 2.6 46 5.1 WSW 15 19 8 10 1024.0 1024.2 0.0
28/03:30pm 14.3 9.6 3.2 47 5.1 WSW 17 24 9 13 1023.9 1024.1 0.0
28/03:00pm 14.7 9.5 3.5 47 5.1 W 20 28 11 15 1023.5 1023.7 0.0
28/02:30pm 15.0 11.1 3.2 45 5.4 W 13 19 7 10 1023.3 1023.5 0.0
28/02:00pm 14.6 10.3 3.4 47 5.1 WSW 15 20 8 11 1023.3 1023.5 0.0
28/01:30pm 14.6 10.2 2.8 45 5.3 W 15 22 8 12 1023.3 1023.5 0.0
28/01:00pm 14.2 10.2 2.8 46 5.1 W 13 24 7 13 1023.3 1023.5 0.0
28/12:30pm 13.6 9.9 2.2 46 5.0 WSW 11 17 6 9 1023.6 1023.8 0.0
28/12:00pm 13.2 8.8 2.7 49 4.7 W 15 22 8 12 1023.8 1024.0 0.0
28/11:30am 12.9 8.8 2.5 49 4.6 W 13 20 7 11 1024.2 1024.4 0.0
28/11:00am 12.6 7.3 3.0 52 4.3 WSW 20 26 11 14 1024.5 1024.7 0.0
28/10:30am 11.8 7.1 3.1 55 3.9 WSW 17 28 9 15 1024.7 1024.9 0.0
28/10:00am 10.6 5.9 2.9 59 3.4 W 17 28 9 15 1024.7 1024.9 0.0
28/09:30am 10.2 5.7 2.3 58 3.4 WNW 15 28 8 15 1024.5 1024.7 0.0
28/09:00am 9.6 6.3 2.7 62 3.0 NW 9 15 5 8 1024.4 1024.6 0.2
28/08:30am 8.0 4.7 2.3 67 2.4 N 9 17 5 9 1024.5 1024.7 0.2
28/08:00am 5.7 2.7 1.8 76 1.6 NNE 7 11 4 6 1023.9 1024.1 0.2
28/07:30am 5.2 1.7 1.5 77 1.5 NNE 9 11 5 6 1023.7 1023.9 0.2
28/07:00am 4.0 0.0 0.7 79 1.3 NE 11 19 6 10 1023.2 1023.4 0.2
28/06:30am 6.0 1.7 1.0 70 2.0 NW 13 20 7 11 1022.8 1023.0 0.2
28/06:00am 6.4 1.4 1.3 70 2.1 NW 17 22 9 12 1022.2 1022.3 0.2
28/05:30am 6.6 2.0 1.5 70 2.1 NW 15 20 8 11 1021.7 1021.8 0.2
28/05:00am 6.1 1.4 1.1 70 2.0 NW 15 20 8 11 1021.4 1021.5 0.2
28/04:30am 6.2 1.2 1.1 70 2.0 NW 17 26 9 14 1020.9 1021.1 0.2
28/04:00am 6.4 1.7 0.9 68 2.2 NNW 15 20 8 11 1021.0 1021.2 0.2
28/03:30am 6.4 1.7 0.9 68 2.2 NNW 15 22 8 12 1020.7 1020.9 0.2
28/03:00am 6.5 1.8 1.0 68 2.2 NW 15 24 8 13 1020.7 1020.9 0.2
28/02:30am 6.3 1.6 1.2 70 2.1 NW 15 24 8 13 1020.4 1020.6 0.2
28/02:00am 6.2 2.3 1.1 70 2.0 NNW 11 19 6 10 1020.4 1020.6 0.2
28/01:30am 6.5 2.6 1.4 70 2.1 NW 11 17 6 9 1020.2 1020.4 0.2
28/01:00am 6.7 2.5 1.6 70 2.1 NW 13 22 7 12 1020.0 1020.2 0.2
28/12:30am 7.3 3.5 2.0 69 2.2 NW 11 19 6 10 1019.9 1020.1 0.2
28/12:00am 7.3 2.8 2.4 71 2.0 NW 15 20 8 11 1019.7 1019.9 0.2
 
Date/Time
EST
Temp
°C
App
Temp
°C
Dew
Point
°C
Rel
Hum
%
Delta-T
°C
Wind Press
QNH
hPa
Press
MSL
hPa
Rain since
9am
mm
Dir  Spd
km/h
Gust
km/h
Spd
kts
Gust
kts
27/11:30pm 7.4 1.6 2.5 71 2.1 NW 22 30 12 16 1019.3 1019.5 0.2
27/11:00pm 7.3 2.1 2.4 71 2.0 NW 19 30 10 16 1019.4 1019.6 0.2
27/10:30pm 7.5 2.6 2.0 68 2.3 NNW 17 28 9 15 1019.2 1019.4 0.2
27/10:00pm 7.5 3.4 2.2 69 2.2 N 13 19 7 10 1019.2 1019.4 0.0
27/09:30pm 7.2 3.0 1.9 69 2.2 N 13 20 7 11 1018.9 1019.1 0.0
27/09:00pm 7.6 4.2 2.1 68 2.3 N 9 20 5 11 1018.9 1019.1 0.0
27/08:30pm 7.7 4.3 2.0 67 2.4 NNW 9 17 5 9 1018.8 1018.9 0.0
27/08:00pm 7.7 1.5 2.4 69 2.2 W 24 33 13 18 1018.4 1018.5 0.0
27/07:30pm 7.6 1.1 2.5 70 2.2 WNW 26 41 14 22 1018.0 1018.1 0.0
27/07:00pm 7.8 2.0 2.5 69 2.2 WNW 22 35 12 19 1018.1 1018.2 0.0
27/06:30pm 7.9 3.5 2.6 69 2.2 WNW 15 24 8 13 1018.0 1018.1 0.0
27/06:00pm 7.9 1.8 2.6 69 2.2 WNW 24 35 13 19 1017.4 1017.5 0.0
27/05:30pm 8.0 1.9 2.7 69 2.3 WNW 24 35 13 19 1017.0 1017.1 0.0
27/05:00pm 8.1 2.9 2.6 68 2.3 WNW 19 26 10 14 1016.9 1017.0 0.0
27/04:30pm 8.4 3.6 2.6 67 2.5 WNW 17 22 9 12 1016.4 1016.6 0.0
27/04:00pm 9.0 3.0 3.6 69 2.4 WNW 24 30 13 16 1015.9 1016.1 0.0
27/03:30pm 8.6 4.4 3.6 71 2.2 WNW 15 20 8 11 1016.1 1016.3 0.0
27/03:00pm 8.4 4.4 2.8 68 2.4 WNW 13 20 7 11 1015.9 1016.1 0.0
27/02:30pm 8.4 3.3 2.8 68 2.4 WNW 19 32 10 17 1015.7 1015.9 0.0
27/02:00pm 8.8 3.4 2.6 65 2.6 W 20 30 11 16 1015.3 1015.5 0.0
27/01:30pm 9.3 1.5 2.6 63 2.9 W 33 46 18 25 1014.7 1014.8 0.0
27/01:00pm 9.5 3.2 3.7 67 2.6 W 26 35 14 19 1015.0 1015.1 0.0
27/12:30pm 9.4 4.3 3.2 65 2.7 NW 19 24 10 13 1014.9 1015.0 0.0
27/12:00pm 9.5 4.5 3.7 67 2.6 WNW 19 26 10 14 1015.1 1015.3 0.0
27/11:30am 9.1 4.4 3.3 67 2.5 NW 17 24 9 13 1015.6 1015.8 0.0
27/11:00am 8.4 4.5 3.5 71 2.1 NW 13 19 7 10 1016.1 1016.3 0.0
27/10:30am 7.7 2.7 3.7 76 1.7 WNW 19 24 10 13 1016.7 1016.8 0.0
27/10:00am 7.3 3.5 3.7 78 1.6 NW 13 20 7 11 1017.1 1017.2 0.0
27/09:30am 7.0 4.1 4.5 84 1.1 NW 9 13 5 7 1017.1 1017.2 0.0
27/09:00am 6.6 4.1 4.8 88 0.8 NNW 7 11 4 6 1017.0 1017.1 3.0
27/08:30am 6.0 3.7 4.8 92 0.5 N 6 7 3 4 1016.8 1016.9 3.0
27/08:00am 5.8 4.2 4.4 91 0.6 NW 2 9 1 5 1016.8 1016.9 3.0
27/07:30am 5.5 3.2 4.6 94 0.4 N 6 9 3 5 1016.5 1016.7 3.0
27/07:00am 5.7 3.8 5.1 96 0.3 NNW 4 6 2 3 1016.7 1016.8 3.0
27/06:30am 5.8 4.0 5.2 96 0.3 WNW 4 7 2 4 1016.5 1016.7 2.6
27/06:00am 5.8 4.6 4.8 93 0.4 CALM 0 0 0 0 1015.9 1016.1 2.0
27/05:30am 5.8 4.3 4.8 93 0.4 WNW 2 6 1 3 1015.6 1015.8 1.8
27/05:00am 5.8 3.5 4.8 93 0.4 NNW 6 9 3 5 1015.4 1015.6 1.4
27/04:30am 5.8 3.5 4.6 92 0.5 NW 6 9 3 5 1014.7 1014.8 1.4
27/04:00am 6.0 4.8 4.5 90 0.7 CALM 0 6 0 3 1015.2 1015.4 0.8
27/03:30am 5.7 3.3 4.2 90 0.6 NNE 6 7 3 4 1015.2 1015.4 0.2
27/03:00am 5.8 4.1 4.0 88 0.8 NNE 2 7 1 4 1015.4 1015.6 0.0
27/02:30am 5.8 3.8 4.3 90 0.6 N 4 7 2 4 1015.6 1015.8 0.0
27/02:00am 5.3 2.3 4.0 91 0.6 NW 9 11 5 6 1015.6 1015.8 0.0
27/01:30am 5.2 3.8 3.7 90 0.6 CALM 0 9 0 5 1015.2 1015.4 0.0
27/01:00am 5.1 3.7 3.6 90 0.6 CALM 0 0 0 0 1015.1 1015.3 0.0
27/12:30am 5.1 3.7 3.6 90 0.6 CALM 0 0 0 0 1015.4 1015.6 0.0
27/12:00am 4.9 3.1 3.6 91 0.5 WSW 2 9 1 5 1015.7 1015.9 0.0
 
Date/Time
EST
Temp
°C
App
Temp
°C
Dew
Point
°C
Rel
Hum
%
Delta-T
°C
Wind Press
QNH
hPa
Press
MSL
hPa
Rain since
9am
mm
Dir  Spd
km/h
Gust
km/h
Spd
kts
Gust
kts
26/11:30pm 4.9 3.4 3.1 88 0.7 CALM 0 0 0 0 1015.6 1015.8 0.0
26/11:00pm 5.3 3.9 3.3 87 0.8 CALM 0 0 0 0 1016.2 1016.4 0.0
26/10:30pm 5.9 4.5 3.6 85 1.0 CALM 0 0 0 0 1016.5 1016.7 0.0
26/10:00pm 5.2 3.3 2.9 85 1.0 E 2 7 1 4 1016.1 1016.3 0.0
26/09:30pm 5.6 3.7 2.9 83 1.1 E 2 7 1 4 1016.2 1016.4 0.0
26/09:00pm 6.4 4.6 3.4 81 1.3 NNW 2 7 1 4 1016.2 1016.4 0.0
26/08:30pm 6.5 3.5 4.0 84 1.1 WNW 9 17 5 9 1016.7 1016.8 0.0
26/08:00pm 7.0 4.5 3.8 80 1.4 NE 6 7 3 4 1016.8 1016.9 0.0
26/07:30pm 7.3 6.0 3.9 79 1.5 CALM 0 0 0 0 1016.7 1016.8 0.0
26/07:00pm 7.4 4.9 3.6 77 1.6 W 6 9 3 5 1017.1 1017.2 0.0
26/06:30pm 8.4 5.8 3.1 69 2.3 NE 6 9 3 5 1016.7 1016.8 0.0
26/06:00pm 8.2 6.8 3.3 71 2.1 CALM 0 0 0 0 1017.4 1017.5 0.0
26/05:30pm 8.2 6.3 2.9 69 2.3 NNW 2 7 1 4 1017.3 1017.4 0.0
26/05:00pm 9.4 6.6 2.3 61 3.0 NNW 6 7 3 4 1016.5 1016.7 0.0
26/04:30pm 9.9 8.3 2.3 59 3.3 CALM 0 0 0 0 1016.7 1016.8 0.0
26/04:00pm 10.7 9.0 1.8 54 3.8 CALM 0 0 0 0 1016.1 1016.3 0.0
26/03:30pm 10.9 8.7 1.2 51 4.1 ESE 2 6 1 3 1016.1 1016.3 0.0
26/03:00pm 11.0 8.1 1.3 51 4.1 SE 6 9 3 5 1016.5 1016.7 0.0
26/02:30pm 11.2 8.2 0.6 48 4.4 SSE 6 9 3 5 1017.0 1017.1 0.0
26/02:00pm 11.6 9.3 0.4 46 4.7 S 2 7 1 4 1017.4 1017.5 0.0
26/01:30pm 11.3 8.4 1.5 51 4.2 ESE 6 9 3 5 1017.5 1017.6 0.0
26/01:00pm 10.4 7.1 0.4 50 4.1 S 7 13 4 7 1018.1 1018.2 0.0
26/12:30pm 10.3 7.4 1.4 54 3.8 SW 6 9 3 5 1018.1 1018.2 0.0
26/12:00pm 10.2 7.4 1.8 56 3.6 SE 6 9 3 5 1018.7 1018.8 0.0

Other Formats:

Comma delimited format used in spreadsheet applications
http://www.bom.gov.au/fwo/IDN60801/IDN60801.95758.axf

JavaScript Object Notation format (JSON) in row-major order
http://www.bom.gov.au/fwo/IDN60801/IDN60801.95758.json